sensor_id;sensor_type;location;lat;lon;timestamp;pressure;altitude;pressure_sealevel;temperature;humidity
18697;BME280;22617;43.690;27.956;2023-11-21T00:01:27;98534.81;;;5.81;93.66
18697;BME280;22617;43.690;27.956;2023-11-21T00:06:31;98534.81;;;5.75;92.31
18697;BME280;22617;43.690;27.956;2023-11-21T00:11:36;98538.16;;;5.65;92.35
18697;BME280;22617;43.690;27.956;2023-11-21T00:16:40;98540.72;;;5.63;92.37
18697;BME280;22617;43.690;27.956;2023-11-21T00:21:43;98535.41;;;5.45;92.27
18697;BME280;22617;43.690;27.956;2023-11-21T00:26:48;98529.41;;;5.48;92.43
18697;BME280;22617;43.690;27.956;2023-11-21T00:31:53;98520.00;;;5.56;92.16
18697;BME280;22617;43.690;27.956;2023-11-21T00:36:56;98519.00;;;5.40;92.26
18697;BME280;22617;43.690;27.956;2023-11-21T00:42:02;98517.41;;;5.54;91.83
18697;BME280;22617;43.690;27.956;2023-11-21T00:47:06;98520.00;;;5.57;91.68
18697;BME280;22617;43.690;27.956;2023-11-21T00:52:10;98520.78;;;5.49;91.74
18697;BME280;22617;43.690;27.956;2023-11-21T00:57:15;98523.38;;;5.49;91.75
18697;BME280;22617;43.690;27.956;2023-11-21T01:02:19;98524.19;;;5.43;91.45
18697;BME280;22617;43.690;27.956;2023-11-21T01:07:22;98526.72;;;5.37;91.53
18697;BME280;22617;43.690;27.956;2023-11-21T01:12:27;98529.22;;;5.26;91.15
18697;BME280;22617;43.690;27.956;2023-11-21T01:17:31;98518.94;;;5.31;91.47
18697;BME280;22617;43.690;27.956;2023-11-21T01:22:36;98512.13;;;5.42;91.55
18697;BME280;22617;43.690;27.956;2023-11-21T01:27:41;98501.78;;;5.41;90.65
18697;BME280;22617;43.690;27.956;2023-11-21T01:32:45;98505.19;;;5.35;91.07
18697;BME280;22617;43.690;27.956;2023-11-21T01:37:48;98500.09;;;5.44;91.05
18697;BME280;22617;43.690;27.956;2023-11-21T01:42:54;98499.13;;;5.33;90.43
18697;BME280;22617;43.690;27.956;2023-11-21T01:47:58;98493.94;;;5.30;90.45
18697;BME280;22617;43.690;27.956;2023-11-21T01:53:03;98503.41;;;5.30;91.08
18697;BME280;22617;43.690;27.956;2023-11-21T01:58:10;98490.50;;;5.31;90.47
18697;BME280;22617;43.690;27.956;2023-11-21T02:03:14;98482.69;;;5.23;91.00
18697;BME280;22617;43.690;27.956;2023-11-21T02:08:18;98478.31;;;5.15;91.20
18697;BME280;22617;43.690;27.956;2023-11-21T02:13:23;98496.34;;;5.13;91.08
18697;BME280;22617;43.690;27.956;2023-11-21T02:18:27;98502.28;;;5.02;90.58
18697;BME280;22617;43.690;27.956;2023-11-21T02:23:33;98509.16;;;5.00;91.57
18697;BME280;22617;43.690;27.956;2023-11-21T02:28:37;98515.25;;;5.06;91.64
18697;BME280;22617;43.690;27.956;2023-11-21T02:33:41;98514.41;;;5.10;91.82
18697;BME280;22617;43.690;27.956;2023-11-21T02:38:47;98508.41;;;5.08;91.19
18697;BME280;22617;43.690;27.956;2023-11-21T02:43:50;98511.81;;;5.09;91.21
18697;BME280;22617;43.690;27.956;2023-11-21T02:48:54;98510.16;;;5.15;90.91
18697;BME280;22617;43.690;27.956;2023-11-21T02:53:59;98508.44;;;5.14;90.67
18697;BME280;22617;43.690;27.956;2023-11-21T02:59:04;98516.13;;;5.07;90.89
18697;BME280;22617;43.690;27.956;2023-11-21T03:04:08;98516.97;;;5.07;90.78
18697;BME280;22617;43.690;27.956;2023-11-21T03:09:13;98518.53;;;4.92;90.91
18697;BME280;22617;43.690;27.956;2023-11-21T03:14:16;98547.91;;;5.04;90.93
18697;BME280;22617;43.690;27.956;2023-11-21T03:19:20;98548.53;;;4.79;90.39
18697;BME280;22617;43.690;27.956;2023-11-21T03:24:25;98545.75;;;4.65;90.83
18697;BME280;22617;43.690;27.956;2023-11-21T03:29:28;98541.53;;;4.69;90.83
18697;BME280;22617;43.690;27.956;2023-11-21T03:34:32;98536.25;;;4.60;92.12
18697;BME280;22617;43.690;27.956;2023-11-21T03:39:37;98524.19;;;4.59;92.23
18697;BME280;22617;43.690;27.956;2023-11-21T03:44:40;98527.84;;;4.74;92.00
18697;BME280;22617;43.690;27.956;2023-11-21T03:49:44;98535.66;;;4.82;91.90
18697;BME280;22617;43.690;27.956;2023-11-21T03:54:52;98531.31;;;4.78;91.97
18697;BME280;22617;43.690;27.956;2023-11-21T03:59:55;98545.06;;;4.77;91.89
18697;BME280;22617;43.690;27.956;2023-11-21T04:04:59;98544.16;;;4.73;92.47
18697;BME280;22617;43.690;27.956;2023-11-21T04:10:05;98551.13;;;4.79;92.07
18697;BME280;22617;43.690;27.956;2023-11-21T04:15:11;98551.13;;;4.82;91.84
18697;BME280;22617;43.690;27.956;2023-11-21T04:20:15;98544.19;;;4.76;91.83
18697;BME280;22617;43.690;27.956;2023-11-21T04:25:20;98549.22;;;4.66;92.35
18697;BME280;22617;43.690;27.956;2023-11-21T04:30:25;98551.78;;;4.66;92.31
18697;BME280;22617;43.690;27.956;2023-11-21T04:35:28;98553.63;;;4.73;92.89
18697;BME280;22617;43.690;27.956;2023-11-21T04:40:33;98549.25;;;4.69;92.61
18697;BME280;22617;43.690;27.956;2023-11-21T04:45:37;98551.03;;;4.73;92.36
18697;BME280;22617;43.690;27.956;2023-11-21T04:50:43;98552.63;;;4.60;92.50
18697;BME280;22617;43.690;27.956;2023-11-21T04:55:48;98563.88;;;4.68;91.70
18697;BME280;22617;43.690;27.956;2023-11-21T05:00:52;98564.63;;;4.61;92.25
18697;BME280;22617;43.690;27.956;2023-11-21T05:05:55;98574.00;;;4.53;91.82
18697;BME280;22617;43.690;27.956;2023-11-21T05:11:00;98581.78;;;4.55;91.67
18697;BME280;22617;43.690;27.956;2023-11-21T05:16:04;98573.25;;;4.60;92.15
18697;BME280;22617;43.690;27.956;2023-11-21T05:21:09;98584.47;;;4.65;91.43
18697;BME280;22617;43.690;27.956;2023-11-21T05:26:14;98591.41;;;4.68;91.01
18697;BME280;22617;43.690;27.956;2023-11-21T05:31:17;98589.94;;;4.88;90.94
18697;BME280;22617;43.690;27.956;2023-11-21T05:36:21;98591.66;;;4.91;90.71
18697;BME280;22617;43.690;27.956;2023-11-21T05:41:26;98597.03;;;5.09;90.10
18697;BME280;22617;43.690;27.956;2023-11-21T05:46:29;98598.84;;;5.16;89.48
18697;BME280;22617;43.690;27.956;2023-11-21T05:51:33;98600.75;;;5.34;88.41
18697;BME280;22617;43.690;27.956;2023-11-21T05:56:38;98597.66;;;5.71;87.35
18697;BME280;22617;43.690;27.956;2023-11-21T06:01:41;98596.09;;;5.87;86.09
18697;BME280;22617;43.690;27.956;2023-11-21T06:06:45;98596.19;;;6.00;85.35
18697;BME280;22617;43.690;27.956;2023-11-21T06:11:50;98610.88;;;6.04;84.87
18697;BME280;22617;43.690;27.956;2023-11-21T06:17:18;98605.88;;;6.23;84.43
18697;BME280;22617;43.690;27.956;2023-11-21T06:22:22;98611.09;;;6.32;83.75
18697;BME280;22617;43.690;27.956;2023-11-21T06:27:27;98611.16;;;6.41;83.03
18697;BME280;22617;43.690;27.956;2023-11-21T06:32:31;98620.66;;;6.48;82.81
18697;BME280;22617;43.690;27.956;2023-11-21T06:37:35;98620.81;;;6.69;81.80
18697;BME280;22617;43.690;27.956;2023-11-21T06:42:40;98613.97;;;6.80;81.72
18697;BME280;22617;43.690;27.956;2023-11-21T06:47:43;98619.22;;;7.01;81.41
18697;BME280;22617;43.690;27.956;2023-11-21T06:52:47;98621.94;;;7.29;80.28
18697;BME280;22617;43.690;27.956;2023-11-21T06:57:52;98615.91;;;7.42;79.94
18697;BME280;22617;43.690;27.956;2023-11-21T07:02:56;98602.94;;;7.51;79.44
18697;BME280;22617;43.690;27.956;2023-11-21T07:08:00;98609.00;;;7.55;78.53
18697;BME280;22617;43.690;27.956;2023-11-21T07:13:08;98619.38;;;7.56;78.69
18697;BME280;22617;43.690;27.956;2023-11-21T07:18:14;98606.41;;;7.52;78.58
18697;BME280;22617;43.690;27.956;2023-11-21T07:23:18;98614.16;;;7.45;78.84
18697;BME280;22617;43.690;27.956;2023-11-21T07:28:24;98617.59;;;7.31;78.89
18697;BME280;22617;43.690;27.956;2023-11-21T07:33:27;98614.16;;;7.45;79.18
18697;BME280;22617;43.690;27.956;2023-11-21T07:38:31;98615.06;;;7.63;78.50
18697;BME280;22617;43.690;27.956;2023-11-21T07:43:37;98616.78;;;7.73;78.24
18697;BME280;22617;43.690;27.956;2023-11-21T07:48:41;98625.44;;;7.87;77.90
18697;BME280;22617;43.690;27.956;2023-11-21T07:53:45;98629.78;;;8.02;78.23
18697;BME280;22617;43.690;27.956;2023-11-21T07:58:50;98628.94;;;8.38;76.87
18697;BME280;22617;43.690;27.956;2023-11-21T08:03:55;98614.22;;;8.38;76.25
18697;BME280;22617;43.690;27.956;2023-11-21T08:09:04;98627.16;;;8.65;75.99
18697;BME280;22617;43.690;27.956;2023-11-21T08:14:11;98624.50;;;8.87;75.44
18697;BME280;22617;43.690;27.956;2023-11-21T08:19:15;98629.53;;;9.22;75.17
18697;BME280;22617;43.690;27.956;2023-11-21T08:24:18;98632.88;;;9.54;73.58
18697;BME280;22617;43.690;27.956;2023-11-21T08:29:23;98628.16;;;10.03;72.09
18697;BME280;22617;43.690;27.956;2023-11-21T08:34:27;98625.97;;;10.58;71.12
18697;BME280;22617;43.690;27.956;2023-11-21T08:39:31;98623.09;;;10.81;70.38
18697;BME280;22617;43.690;27.956;2023-11-21T08:44:36;98622.66;;;10.42;70.20
18697;BME280;22617;43.690;27.956;2023-11-21T08:49:40;98622.13;;;9.98;71.21
18697;BME280;22617;43.690;27.956;2023-11-21T08:54:44;98613.03;;;10.47;70.34
18697;BME280;22617;43.690;27.956;2023-11-21T08:59:49;98596.97;;;10.88;69.33
18697;BME280;22617;43.690;27.956;2023-11-21T09:04:57;98596.81;;;10.99;69.20
18697;BME280;22617;43.690;27.956;2023-11-21T09:10:01;98598.91;;;11.38;67.89
18697;BME280;22617;43.690;27.956;2023-11-21T09:15:07;98593.25;;;11.69;67.85
18697;BME280;22617;43.690;27.956;2023-11-21T09:20:13;98580.03;;;12.33;66.04
18697;BME280;22617;43.690;27.956;2023-11-21T09:25:17;98581.41;;;12.52;64.43
18697;BME280;22617;43.690;27.956;2023-11-21T09:30:22;98583.03;;;12.61;64.00
18697;BME280;22617;43.690;27.956;2023-11-21T09:35:26;98567.97;;;13.17;62.73
18697;BME280;22617;43.690;27.956;2023-11-21T09:40:30;98571.16;;;12.86;62.09
18697;BME280;22617;43.690;27.956;2023-11-21T09:45:35;98572.78;;;12.49;63.99
18697;BME280;22617;43.690;27.956;2023-11-21T09:50:42;98563.88;;;13.02;63.59
18697;BME280;22617;43.690;27.956;2023-11-21T09:55:48;98562.25;;;13.76;61.36
18697;BME280;22617;43.690;27.956;2023-11-21T10:00:55;98560.97;;;14.26;60.06
18697;BME280;22617;43.690;27.956;2023-11-21T10:06:01;98549.34;;;14.70;59.14
18697;BME280;22617;43.690;27.956;2023-11-21T10:11:08;98529.41;;;15.53;58.17
18697;BME280;22617;43.690;27.956;2023-11-21T10:16:17;98521.38;;;16.10;56.45
18697;BME280;22617;43.690;27.956;2023-11-21T10:21:23;98523.34;;;15.49;56.06
18697;BME280;22617;43.690;27.956;2023-11-21T10:26:28;98520.78;;;14.60;57.80
18697;BME280;22617;43.690;27.956;2023-11-21T10:31:49;98529.00;;;15.08;58.26
18697;BME280;22617;43.690;27.956;2023-11-21T10:36:53;98511.63;;;15.33;56.63
18697;BME280;22617;43.690;27.956;2023-11-21T10:41:59;98505.97;;;15.45;58.03
18697;BME280;22617;43.690;27.956;2023-11-21T10:47:04;98498.88;;;15.77;56.39
18697;BME280;22617;43.690;27.956;2023-11-21T10:52:08;98511.75;;;15.84;57.22
18697;BME280;22617;43.690;27.956;2023-11-21T10:57:20;98506.47;;;16.10;55.95
18697;BME280;22617;43.690;27.956;2023-11-21T11:02:27;98503.06;;;15.82;55.72
18697;BME280;22617;43.690;27.956;2023-11-21T11:07:36;98513.09;;;15.96;56.71
18697;BME280;22617;43.690;27.956;2023-11-21T11:12:41;98520.59;;;15.82;58.15
18697;BME280;22617;43.690;27.956;2023-11-21T11:17:46;98511.50;;;15.08;59.11
18697;BME280;22617;43.690;27.956;2023-11-21T11:22:59;98505.97;;;15.73;56.98
18697;BME280;22617;43.690;27.956;2023-11-21T11:28:13;98500.63;;;15.76;57.88
18697;BME280;22617;43.690;27.956;2023-11-21T11:33:26;98501.84;;;15.66;57.53
18697;BME280;22617;43.690;27.956;2023-11-21T11:38:35;98505.09;;;15.99;56.40
18697;BME280;22617;43.690;27.956;2023-11-21T11:43:38;98517.59;;;15.09;58.61
18697;BME280;22617;43.690;27.956;2023-11-21T11:48:48;98515.84;;;15.37;59.21
18697;BME280;22617;43.690;27.956;2023-11-21T11:54:05;98516.72;;;15.10;60.02
18697;BME280;22617;43.690;27.956;2023-11-21T11:59:10;98510.88;;;15.84;56.51
18697;BME280;22617;43.690;27.956;2023-11-21T12:04:27;98501.25;;;16.09;56.08
18697;BME280;22617;43.690;27.956;2023-11-21T12:09:37;98498.91;;;16.26;55.97
18697;BME280;22617;43.690;27.956;2023-11-21T12:14:40;98491.09;;;16.25;54.93
18697;BME280;22617;43.690;27.956;2023-11-21T12:19:45;98497.56;;;16.39;55.33
18697;BME280;22617;43.690;27.956;2023-11-21T12:24:49;98495.81;;;15.62;55.99
18697;BME280;22617;43.690;27.956;2023-11-21T12:29:52;98491.16;;;15.70;56.79
18697;BME280;22617;43.690;27.956;2023-11-21T12:35:00;98483.84;;;14.97;58.09
18697;BME280;22617;43.690;27.956;2023-11-21T12:40:06;98474.31;;;14.63;59.26
18697;BME280;22617;43.690;27.956;2023-11-21T12:45:20;98485.22;;;14.80;59.26
18697;BME280;22617;43.690;27.956;2023-11-21T12:50:28;98480.41;;;14.65;60.76
18697;BME280;22617;43.690;27.956;2023-11-21T12:55:34;98475.69;;;14.47;60.75
18697;BME280;22617;43.690;27.956;2023-11-21T13:00:42;98474.72;;;14.50;61.57
18697;BME280;22617;43.690;27.956;2023-11-21T13:05:47;98485.00;;;14.25;61.69
18697;BME280;22617;43.690;27.956;2023-11-21T13:10:56;98476.22;;;13.93;62.14
18697;BME280;22617;43.690;27.956;2023-11-21T13:16:01;98471.47;;;13.75;62.95
18697;BME280;22617;43.690;27.956;2023-11-21T13:21:08;98462.88;;;13.70;63.43
18697;BME280;22617;43.690;27.956;2023-11-21T13:26:15;98461.88;;;13.74;62.51
18697;BME280;22617;43.690;27.956;2023-11-21T13:31:19;98457.13;;;13.56;62.79
18697;BME280;22617;43.690;27.956;2023-11-21T13:36:30;98453.03;;;13.44;63.66
18697;BME280;22617;43.690;27.956;2023-11-21T13:41:35;98464.69;;;13.31;64.05
18697;BME280;22617;43.690;27.956;2023-11-21T13:46:41;98459.13;;;13.06;67.05
18697;BME280;22617;43.690;27.956;2023-11-21T13:51:46;98461.31;;;12.86;68.08
18697;BME280;22617;43.690;27.956;2023-11-21T13:56:54;98461.94;;;12.57;68.42
18697;BME280;22617;43.690;27.956;2023-11-21T14:01:58;98457.97;;;12.40;69.15
18697;BME280;22617;43.690;27.956;2023-11-21T14:07:04;98465.22;;;12.26;69.89
18697;BME280;22617;43.690;27.956;2023-11-21T14:12:25;98464.69;;;12.07;70.22
18697;BME280;22617;43.690;27.956;2023-11-21T14:17:28;98461.50;;;11.91;71.51
18697;BME280;22617;43.690;27.956;2023-11-21T14:22:33;98462.69;;;11.70;73.02
18697;BME280;22617;43.690;27.956;2023-11-21T14:27:38;98464.09;;;11.41;74.49
18697;BME280;22617;43.690;27.956;2023-11-21T14:32:42;98466.22;;;11.16;75.24
18697;BME280;22617;43.690;27.956;2023-11-21T14:37:47;98464.75;;;10.97;75.86
18697;BME280;22617;43.690;27.956;2023-11-21T14:42:51;98465.81;;;10.82;76.67
18697;BME280;22617;43.690;27.956;2023-11-21T14:47:56;98451.31;;;10.63;77.87
18697;BME280;22617;43.690;27.956;2023-11-21T14:53:10;98459.34;;;10.46;79.10
18697;BME280;22617;43.690;27.956;2023-11-21T14:58:15;98457.00;;;10.23;79.59
18697;BME280;22617;43.690;27.956;2023-11-21T15:03:27;98458.00;;;10.08;80.77
18697;BME280;22617;43.690;27.956;2023-11-21T15:08:51;98459.13;;;9.88;80.43
18697;BME280;22617;43.690;27.956;2023-11-21T15:14:01;98450.53;;;9.75;81.13
18697;BME280;22617;43.690;27.956;2023-11-21T15:19:09;98446.38;;;9.57;81.39
18697;BME280;22617;43.690;27.956;2023-11-21T15:24:16;98440.44;;;9.43;82.69
18697;BME280;22617;43.690;27.956;2023-11-21T15:29:19;98441.41;;;9.33;83.21
18697;BME280;22617;43.690;27.956;2023-11-21T15:34:23;98432.81;;;9.25;83.20
18697;BME280;22617;43.690;27.956;2023-11-21T15:39:30;98447.66;;;9.11;82.88
18697;BME280;22617;43.690;27.956;2023-11-21T15:44:34;98459.00;;;8.93;83.45
18697;BME280;22617;43.690;27.956;2023-11-21T15:49:39;98456.47;;;8.84;84.08
18697;BME280;22617;43.690;27.956;2023-11-21T15:54:44;98465.16;;;8.79;84.86
18697;BME280;22617;43.690;27.956;2023-11-21T15:59:48;98470.38;;;8.77;85.33
18697;BME280;22617;43.690;27.956;2023-11-21T16:04:54;98469.59;;;8.63;84.19
18697;BME280;22617;43.690;27.956;2023-11-21T16:10:00;98467.88;;;8.57;85.00
18697;BME280;22617;43.690;27.956;2023-11-21T16:15:06;98467.97;;;8.39;84.30
18697;BME280;22617;43.690;27.956;2023-11-21T16:20:11;98478.25;;;8.60;85.54
18697;BME280;22617;43.690;27.956;2023-11-21T16:25:19;98467.66;;;8.97;83.60
18697;BME280;22617;43.690;27.956;2023-11-21T16:30:22;98462.19;;;9.33;81.43
18697;BME280;22617;43.690;27.956;2023-11-21T16:35:26;98462.81;;;9.59;79.05
18697;BME280;22617;43.690;27.956;2023-11-21T16:40:31;98468.66;;;9.86;77.86
18697;BME280;22617;43.690;27.956;2023-11-21T16:45:35;98461.63;;;9.94;77.66
18697;BME280;22617;43.690;27.956;2023-11-21T16:50:42;98456.50;;;9.88;77.16
18697;BME280;22617;43.690;27.956;2023-11-21T16:55:47;98458.31;;;9.80;77.34
18697;BME280;22617;43.690;27.956;2023-11-21T17:00:51;98451.38;;;9.80;78.02
18697;BME280;22617;43.690;27.956;2023-11-21T17:05:55;98442.78;;;9.71;78.69
18697;BME280;22617;43.690;27.956;2023-11-21T17:11:00;98442.78;;;9.72;78.72
18697;BME280;22617;43.690;27.956;2023-11-21T17:16:05;98431.56;;;9.69;80.25
18697;BME280;22617;43.690;27.956;2023-11-21T17:21:09;98430.66;;;9.70;80.48
18697;BME280;22617;43.690;27.956;2023-11-21T17:26:28;98431.59;;;9.59;81.25
18697;BME280;22617;43.690;27.956;2023-11-21T17:31:33;98414.44;;;9.43;81.84
18697;BME280;22617;43.690;27.956;2023-11-21T17:36:37;98418.78;;;9.43;83.49
18697;BME280;22617;43.690;27.956;2023-11-21T17:41:44;98417.91;;;9.42;84.53
18697;BME280;22617;43.690;27.956;2023-11-21T17:46:48;98413.63;;;9.35;85.91
18697;BME280;22617;43.690;27.956;2023-11-21T17:51:51;98418.78;;;9.41;87.44
18697;BME280;22617;43.690;27.956;2023-11-21T17:56:56;98407.50;;;9.42;87.66
18697;BME280;22617;43.690;27.956;2023-11-21T18:02:00;98413.56;;;9.43;87.73
18697;BME280;22617;43.690;27.956;2023-11-21T18:07:05;98418.81;;;9.38;88.64
18697;BME280;22617;43.690;27.956;2023-11-21T18:12:11;98417.13;;;9.31;88.87
18697;BME280;22617;43.690;27.956;2023-11-21T18:17:15;98411.09;;;9.29;88.98
18697;BME280;22617;43.690;27.956;2023-11-21T18:22:19;98414.53;;;9.31;90.08
18697;BME280;22617;43.690;27.956;2023-11-21T18:27:27;98400.66;;;9.31;89.92
18697;BME280;22617;43.690;27.956;2023-11-21T18:32:30;98402.34;;;9.39;90.03
18697;BME280;22617;43.690;27.956;2023-11-21T18:37:37;98413.63;;;9.37;89.78
18697;BME280;22617;43.690;27.956;2023-11-21T18:42:42;98398.88;;;9.37;89.85
18697;BME280;22617;43.690;27.956;2023-11-21T18:47:47;98398.91;;;9.33;89.38
18697;BME280;22617;43.690;27.956;2023-11-21T18:52:51;98396.41;;;9.24;89.38
18697;BME280;22617;43.690;27.956;2023-11-21T18:57:56;98399.88;;;9.21;89.63
18697;BME280;22617;43.690;27.956;2023-11-21T19:02:59;98386.81;;;9.30;89.72
18697;BME280;22617;43.690;27.956;2023-11-21T19:08:04;98383.44;;;9.21;89.50
18697;BME280;22617;43.690;27.956;2023-11-21T19:13:09;98383.44;;;9.21;89.84
18697;BME280;22617;43.690;27.956;2023-11-21T19:18:13;98384.22;;;9.29;90.26
18697;BME280;22617;43.690;27.956;2023-11-21T19:23:16;98382.38;;;9.41;90.50
18697;BME280;22617;43.690;27.956;2023-11-21T19:28:24;98378.00;;;9.45;90.37
18697;BME280;22617;43.690;27.956;2023-11-21T19:33:28;98376.19;;;9.51;90.48
18697;BME280;22617;43.690;27.956;2023-11-21T19:38:34;98367.47;;;9.55;90.33
18697;BME280;22617;43.690;27.956;2023-11-21T19:43:39;98376.00;;;9.70;90.35
18697;BME280;22617;43.690;27.956;2023-11-21T19:48:43;98370.75;;;9.74;90.04
18697;BME280;22617;43.690;27.956;2023-11-21T19:53:46;98358.50;;;9.85;90.16
18697;BME280;22617;43.690;27.956;2023-11-21T19:58:51;98356.66;;;9.93;90.24
18697;BME280;22617;43.690;27.956;2023-11-21T20:03:55;98364.38;;;10.01;90.27
18697;BME280;22617;43.690;27.956;2023-11-21T20:08:59;98357.41;;;10.03;90.73
18697;BME280;22617;43.690;27.956;2023-11-21T20:14:07;98353.03;;;10.06;90.55
18697;BME280;22617;43.690;27.956;2023-11-21T20:19:10;98359.06;;;10.10;91.35
18697;BME280;22617;43.690;27.956;2023-11-21T20:24:14;98351.31;;;10.05;92.21
18697;BME280;22617;43.690;27.956;2023-11-21T20:29:19;98349.47;;;10.14;92.64
18697;BME280;22617;43.690;27.956;2023-11-21T20:34:24;98342.56;;;10.10;92.91
18697;BME280;22617;43.690;27.956;2023-11-21T20:39:28;98338.94;;;10.24;93.41
18697;BME280;22617;43.690;27.956;2023-11-21T20:44:33;98342.38;;;10.28;93.72
18697;BME280;22617;43.690;27.956;2023-11-21T20:49:39;98329.28;;;10.32;93.30
18697;BME280;22617;43.690;27.956;2023-11-21T20:54:50;98335.22;;;10.42;94.13
18697;BME280;22617;43.690;27.956;2023-11-21T20:59:55;98321.31;;;10.43;93.85
18697;BME280;22617;43.690;27.956;2023-11-21T21:04:59;98325.66;;;10.44;93.99
18697;BME280;22617;43.690;27.956;2023-11-21T21:10:05;98312.69;;;10.39;94.81
18697;BME280;22617;43.690;27.956;2023-11-21T21:15:14;98305.78;;;10.37;96.11
18697;BME280;22617;43.690;27.956;2023-11-21T21:20:18;98302.22;;;10.44;97.82
18697;BME280;22617;43.690;27.956;2023-11-21T21:25:22;98304.75;;;10.45;98.91
18697;BME280;22617;43.690;27.956;2023-11-21T21:30:27;98298.59;;;10.51;99.62
18697;BME280;22617;43.690;27.956;2023-11-21T21:35:32;98300.53;;;10.40;100.00
18697;BME280;22617;43.690;27.956;2023-11-21T21:40:35;98297.88;;;10.43;100.00
18697;BME280;22617;43.690;27.956;2023-11-21T21:45:40;98291.00;;;10.37;100.00
18697;BME280;22617;43.690;27.956;2023-11-21T21:50:45;98289.41;;;10.27;100.00
18697;BME280;22617;43.690;27.956;2023-11-21T21:55:48;98287.59;;;10.35;100.00
18697;BME280;22617;43.690;27.956;2023-11-21T22:00:55;98283.94;;;10.45;100.00
18697;BME280;22617;43.690;27.956;2023-11-21T22:06:01;98264.78;;;10.49;100.00
18697;BME280;22617;43.690;27.956;2023-11-21T22:11:04;98250.84;;;10.50;100.00
18697;BME280;22617;43.690;27.956;2023-11-21T22:16:10;98252.66;;;10.45;100.00
18697;BME280;22617;43.690;27.956;2023-11-21T22:21:13;98254.63;;;10.31;100.00
18697;BME280;22617;43.690;27.956;2023-11-21T22:26:17;98235.28;;;10.47;100.00
18697;BME280;22617;43.690;27.956;2023-11-21T22:31:24;98239.91;;;10.30;100.00
18697;BME280;22617;43.690;27.956;2023-11-21T22:36:27;98240.78;;;10.29;100.00
18697;BME280;22617;43.690;27.956;2023-11-21T22:41:31;98225.06;;;10.35;100.00
18697;BME280;22617;43.690;27.956;2023-11-21T22:46:40;98220.09;;;10.20;100.00
18697;BME280;22617;43.690;27.956;2023-11-21T22:51:44;98217.50;;;10.20;100.00
18697;BME280;22617;43.690;27.956;2023-11-21T22:56:47;98205.19;;;10.30;100.00
18697;BME280;22617;43.690;27.956;2023-11-21T23:01:54;98202.53;;;10.31;100.00
18697;BME280;22617;43.690;27.956;2023-11-21T23:06:57;98206.00;;;10.33;100.00
18697;BME280;22617;43.690;27.956;2023-11-21T23:12:01;98201.72;;;10.29;100.00
18697;BME280;22617;43.690;27.956;2023-11-21T23:17:06;98197.47;;;10.22;100.00
18697;BME280;22617;43.690;27.956;2023-11-21T23:22:10;98203.41;;;10.32;100.00
18697;BME280;22617;43.690;27.956;2023-11-21T23:27:13;98197.38;;;10.28;100.00
18697;BME280;22617;43.690;27.956;2023-11-21T23:32:18;98194.06;;;10.20;100.00
18697;BME280;22617;43.690;27.956;2023-11-21T23:37:22;98202.75;;;10.19;100.00
18697;BME280;22617;43.690;27.956;2023-11-21T23:42:25;98211.47;;;10.15;100.00
18697;BME280;22617;43.690;27.956;2023-11-21T23:47:30;98213.16;;;10.19;100.00
18697;BME280;22617;43.690;27.956;2023-11-21T23:52:34;98212.22;;;10.25;100.00
18697;BME280;22617;43.690;27.956;2023-11-21T23:57:37;98212.28;;;10.20;100.00
